createdAt,value
2023-02-03T00:03:56.058Z,2.80
2023-02-03T00:09:00.965Z,4.10
2023-02-03T00:14:05.644Z,2.60
2023-02-03T00:19:08.751Z,3.10
2023-02-03T00:34:18.381Z,2.10
2023-02-03T00:44:24.690Z,2.20
2023-02-03T00:49:27.796Z,3.50
2023-02-03T00:59:36.564Z,4.90
2023-02-03T01:04:39.775Z,3.50
2023-02-03T01:14:45.985Z,3.30
2023-02-03T01:24:53.626Z,2.50
2023-02-03T01:29:56.842Z,2.90
2023-02-03T01:40:04.073Z,2.40
2023-02-03T01:45:08.728Z,2.40
2023-02-03T01:50:15.403Z,2.90
2023-02-03T01:55:23.300Z,2.80
2023-02-03T02:00:27.265Z,3.30
2023-02-03T02:05:39.875Z,3.90
2023-02-03T02:10:43.078Z,3.70
2023-02-03T02:21:31.377Z,2.80
2023-02-03T02:26:44.111Z,3.40
2023-02-03T02:32:09.741Z,3.60
2023-02-03T02:37:18.788Z,3.30
2023-02-03T02:42:54.103Z,3.40
2023-02-03T02:48:05.927Z,3.40
2023-02-03T02:53:10.495Z,4.40
2023-02-03T02:58:16.796Z,5.10
2023-02-03T03:03:22.702Z,4.60
2023-02-03T03:08:53.916Z,4.30
2023-02-03T03:13:57.533Z,4.50
2023-02-03T03:19:07.185Z,5.10
2023-02-03T03:24:15.719Z,4.90
2023-02-03T03:29:25.379Z,5.10
2023-02-03T03:34:30.573Z,4.70
2023-02-03T03:39:55.249Z,6.70
2023-02-03T03:45:04.808Z,5.10
2023-02-03T03:50:12.296Z,5.00
2023-02-03T03:55:18.747Z,7.50
2023-02-03T04:00:24.861Z,7.60
2023-02-03T04:05:28.804Z,6.30
2023-02-03T04:10:36.301Z,7.00
2023-02-03T04:15:39.613Z,7.40
2023-02-03T04:20:42.616Z,6.20
